Time;durP1;ratioP1;P1;durP2;ratioP2;P2;SDS_P1;SDS_P2;PMS_P1;PMS_P2;Temp;Humidity;BMP_temperature;BMP_pressure;BME280_temperature;BME280_humidity;BME280_pressure;Samples;Min_cycle;Max_cycle;Signal;HPM_P1;HPM_P2
2021/08/16 00:01:14;;;;;;;18.67;13.48;;;;;;;16.97;77.20;100845.78;1783447;80;20904;-71
2021/08/16 00:03:42;;;;;;;20.85;14.65;;;;;;;16.96;77.09;100853.84;1783477;80;21394;-72
2021/08/16 00:06:10;;;;;;;22.17;15.40;;;;;;;16.93;77.28;100852.30;1783397;80;20928;-71
2021/08/16 00:08:37;;;;;;;24.05;14.58;;;;;;;16.93;77.56;100848.81;1783685;80;20991;-71
2021/08/16 00:11:05;;;;;;;22.55;14.05;;;;;;;16.92;77.58;100851.95;1778644;80;20935;-71
2021/08/16 00:13:32;;;;;;;27.17;14.23;;;;;;;16.91;77.80;100844.95;1783489;80;20980;-72
2021/08/16 00:16:01;;;;;;;19.77;13.48;;;;;;;16.91;77.86;100841.47;1783483;80;21545;-71
2021/08/16 00:20:29;;;;;;;25.30;14.65;;;;;;;16.93;77.85;100843.02;1798715;79;22612;-71
2021/08/16 00:22:56;;;;;;;22.65;14.35;;;;;;;16.86;78.01;100837.89;1753673;81;20951;-71
2021/08/16 00:25:25;;;;;;;26.30;15.80;;;;;;;16.84;78.05;100838.50;1750076;82;20920;-70
2021/08/16 00:27:52;;;;;;;29.10;15.68;;;;;;;16.82;78.08;100835.62;1749896;82;20935;-71
2021/08/16 00:30:20;;;;;;;25.92;15.43;;;;;;;16.78;77.89;100837.18;1749941;82;21366;-70
2021/08/16 00:32:49;;;;;;;20.62;14.30;;;;;;;16.78;77.89;100837.18;1750143;82;20896;-69
2021/08/16 00:35:17;;;;;;;32.88;17.32;;;;;;;16.76;77.91;100844.87;1750003;82;20916;-71
2021/08/16 00:37:46;;;;;;;25.02;17.10;;;;;;;16.70;77.79;100840.94;1750109;80;20940;-70
2021/08/16 00:40:14;;;;;;;27.05;17.00;;;;;;;16.66;77.88;100846.61;1749953;82;20920;-70
2021/08/16 00:42:43;;;;;;;29.57;18.05;;;;;;;16.62;78.04;100835.91;1750134;82;20853;-71
2021/08/16 00:45:12;;;;;;;30.32;18.40;;;;;;;16.58;78.39;100832.66;1749958;82;21464;-71
2021/08/16 00:47:39;;;;;;;22.42;16.00;;;;;;;16.56;78.41;100842.53;1749937;80;20881;-71
2021/08/16 00:50:09;;;;;;;27.82;16.97;;;;;;;16.52;79.08;100837.98;1750029;80;21504;-71
2021/08/16 00:52:39;;;;;;;28.45;17.77;;;;;;;16.48;79.71;100836.55;1750022;81;20845;-71
2021/08/16 00:55:09;;;;;;;27.22;16.20;;;;;;;16.45;79.74;100838.14;1750069;81;21330;-70
2021/08/16 00:57:37;;;;;;;23.30;15.28;;;;;;;16.45;79.92;100829.33;1749895;82;20928;-70
2021/08/16 01:00:09;;;;;;;22.07;15.58;;;;;;;16.44;79.95;100830.31;1750048;81;20971;-70
2021/08/16 01:02:41;;;;;;;20.25;12.55;;;;;;;16.42;79.92;100837.53;1749430;82;21799;-70
2021/08/16 01:05:12;;;;;;;22.48;13.93;;;;;;;16.42;79.92;100837.53;1750056;81;20884;-70
2021/08/16 01:07:41;;;;;;;19.40;13.43;;;;;;;16.41;80.11;100830.08;1749934;82;20928;-71
2021/08/16 01:10:09;;;;;;;18.07;12.68;;;;;;;16.41;80.17;100823.47;1750021;82;20928;-70
2021/08/16 01:12:38;;;;;;;23.92;13.78;;;;;;;16.43;80.24;100822.86;1749993;82;20873;-70
2021/08/16 01:15:06;;;;;;;17.65;12.55;;;;;;;16.43;80.30;100824.19;1750001;82;21127;-71
2021/08/16 01:17:33;;;;;;;17.05;13.48;;;;;;;16.44;80.33;100827.17;1749827;82;21418;-70
2021/08/16 01:20:05;;;;;;;21.97;13.30;;;;;;;16.45;80.25;100820.06;1740764;81;20992;-69
2021/08/16 01:22:33;;;;;;;23.57;13.18;;;;;;;16.41;80.16;100821.28;1736698;81;20925;-71
2021/08/16 01:25:02;;;;;;;20.82;12.93;;;;;;;16.41;80.16;100821.28;1736833;81;20885;-72
2021/08/16 01:27:30;;;;;;;17.50;13.25;;;;;;;16.41;80.07;100822.14;1736732;82;21109;-71
2021/08/16 01:29:59;;;;;;;16.97;12.30;;;;;;;16.39;80.12;100822.75;1736591;82;21075;-72
2021/08/16 01:32:26;;;;;;;20.97;13.13;;;;;;;16.39;79.94;100828.53;1736191;82;20920;-71
2021/08/16 01:34:54;;;;;;;18.45;12.55;;;;;;;16.36;79.99;100823.84;1736121;81;20933;-71
2021/08/16 01:37:21;;;;;;;18.17;14.25;;;;;;;16.35;79.86;100830.58;1736220;82;20964;-72
2021/08/16 01:39:48;;;;;;;23.22;14.33;;;;;;;16.31;79.77;100830.45;1736119;82;21178;-72
2021/08/16 01:42:15;;;;;;;19.20;12.43;;;;;;;16.28;79.64;100832.88;1736180;82;20960;-71
2021/08/16 01:44:42;;;;;;;22.17;13.22;;;;;;;16.24;79.61;100836.73;1736300;82;20956;-72
2021/08/16 01:47:09;;;;;;;23.40;13.80;;;;;;;16.21;79.72;100830.83;1736246;82;21455;-72
2021/08/16 01:49:36;;;;;;;19.98;12.30;;;;;;;16.14;79.83;100827.37;1736935;82;20905;-74
2021/08/16 01:52:03;;;;;;;18.50;13.18;;;;;;;16.15;80.49;100832.17;1738216;82;21443;-73
2021/08/16 01:54:33;;;;;;;16.95;12.03;;;;;;;16.15;80.49;100832.17;1736386;81;20849;-72
2021/08/16 01:57:00;;;;;;;15.10;10.68;;;;;;;16.13;80.38;100827.48;1736213;82;20940;-72
2021/08/16 01:59:27;;;;;;;14.95;11.48;;;;;;;16.10;80.49;100828.58;1736059;82;21513;-72
2021/08/16 02:01:53;;;;;;;17.40;12.23;;;;;;;16.06;80.92;100827.14;1736175;81;20917;-71
2021/08/16 02:04:20;;;;;;;13.58;10.85;;;;;;;16.06;80.92;100827.14;1736317;82;21215;-72
2021/08/16 02:06:47;;;;;;;14.47;11.53;;;;;;;16.07;80.70;100833.27;1736253;82;21580;-73
2021/08/16 02:09:14;;;;;;;18.52;11.80;;;;;;;16.05;80.56;100828.58;1736219;82;20924;-72
2021/08/16 02:11:40;;;;;;;19.82;11.97;;;;;;;16.03;80.45;100830.04;1736408;82;20928;-70
2021/08/16 02:14:08;;;;;;;16.73;11.53;;;;;;;16.00;80.29;100836.87;1736240;82;20912;-72
2021/08/16 02:16:35;;;;;;;18.00;11.50;;;;;;;15.95;80.40;100831.95;1736135;82;21201;-72
2021/08/16 02:19:01;;;;;;;18.00;11.33;;;;;;;15.95;80.40;100831.95;1737605;82;21350;-73
2021/08/16 02:21:28;;;;;;;15.35;11.90;;;;;;;15.93;80.49;100830.40;1750072;82;20960;-74
2021/08/16 02:23:55;;;;;;;19.75;10.18;;;;;;;15.91;80.21;100827.03;1750297;80;20917;-72
2021/08/16 02:26:22;;;;;;;15.58;10.65;;;;;;;15.88;80.57;100833.41;1750232;82;20971;-73
2021/08/16 02:28:48;;;;;;;15.38;10.43;;;;;;;15.85;80.47;100832.34;1750169;80;21131;-73
2021/08/16 02:31:20;;;;;;;12.20;9.68;;;;;;;15.83;80.47;100837.36;1750071;82;20928;-73
2021/08/16 02:33:44;;;;;;;13.08;10.05;;;;;;;15.79;80.50;100839.91;1749859;80;21417;-73
2021/08/16 02:36:11;;;;;;;26.05;14.33;;;;;;;15.79;80.50;100839.91;1750212;82;20880;-73
2021/08/16 02:38:38;;;;;;;24.67;13.25;;;;;;;15.76;80.62;100840.97;1750096;82;20939;-73
2021/08/16 02:41:05;;;;;;;35.25;20.35;;;;;;;15.74;80.65;100850.86;1750174;82;21165;-73
2021/08/16 02:43:31;;;;;;;57.78;30.62;;;;;;;15.70;80.68;100838.31;1750267;82;20892;-72
2021/08/16 02:46:00;;;;;;;52.27;26.42;;;;;;;15.69;80.70;100847.19;1750270;80;21323;-74
2021/08/16 02:48:27;;;;;;;26.80;15.75;;;;;;;15.68;80.74;100848.16;1750432;82;20904;-73
2021/08/16 02:50:53;;;;;;;48.70;22.73;;;;;;;15.65;80.77;100844.45;1750227;81;21461;-73
2021/08/16 02:53:20;;;;;;;60.28;30.10;;;;;;;15.65;80.75;100848.87;1750103;82;21148;-73
2021/08/16 02:55:48;;;;;;;30.32;17.12;;;;;;;15.63;80.74;100851.66;1750139;82;20932;-73
2021/08/16 02:58:14;;;;;;;31.82;15.78;;;;;;;15.60;80.80;100847.91;1750340;82;20956;-72
2021/08/16 03:00:43;;;;;;;33.95;17.02;;;;;;;15.60;80.84;100847.07;1750048;82;20936;-72
2021/08/16 03:03:09;;;;;;;29.20;13.05;;;;;;;15.59;80.98;100844.92;1750485;82;21386;-71
2021/08/16 03:05:36;;;;;;;26.37;11.80;;;;;;;15.59;81.14;100848.05;1750168;80;21114;-73
2021/08/16 03:08:05;;;;;;;44.70;23.20;;;;;;;15.58;81.38;100848.98;1750124;82;20920;-72
2021/08/16 03:10:34;;;;;;;26.10;14.43;;;;;;;15.58;81.46;100855.11;1750242;82;21501;-73
2021/08/16 03:13:02;;;;;;;26.52;13.10;;;;;;;15.58;81.36;100856.43;1750092;82;21461;-72
2021/08/16 03:15:31;;;;;;;20.95;10.82;;;;;;;15.59;81.34;100854.66;1750190;82;20885;-73
2021/08/16 03:18:00;;;;;;;15.98;10.53;;;;;;;15.60;81.30;100855.00;1750183;82;20873;-75
2021/08/16 03:20:28;;;;;;;24.75;10.80;;;;;;;15.60;81.34;100851.03;1742016;82;20897;-72
2021/08/16 03:22:55;;;;;;;30.35;13.43;;;;;;;15.60;81.30;100857.16;1736293;82;21434;-73
2021/08/16 03:25:24;;;;;;;16.90;9.80;;;;;;;15.60;81.21;100843.11;1736159;82;20980;-73
2021/08/16 03:27:51;;;;;;;21.87;11.63;;;;;;;15.60;81.32;100861.13;1736260;82;20869;-73
2021/08/16 03:30:18;;;;;;;19.77;9.90;;;;;;;15.59;80.94;100854.66;1736239;81;21130;-73
2021/08/16 03:32:47;;;;;;;26.68;10.65;;;;;;;15.60;81.26;100846.58;1736172;82;21485;-72
2021/08/16 03:35:15;;;;;;;20.08;9.93;;;;;;;15.60;81.35;100853.68;1736109;82;20905;-73
2021/08/16 03:37:43;;;;;;;20.05;11.18;;;;;;;15.63;81.53;100853.43;1736139;82;21011;-73
2021/08/16 03:40:12;;;;;;;21.25;11.05;;;;;;;15.65;81.59;100848.87;1736247;82;20885;-73
2021/08/16 03:42:39;;;;;;;15.25;10.25;;;;;;;15.68;81.76;100855.26;1736118;82;21122;-72
2021/08/16 03:45:16;;;;;;;22.58;10.78;;;;;;;15.71;81.82;100856.36;1736038;82;20999;-73
2021/08/16 03:47:43;;;;;;;19.05;10.63;;;;;;;15.75;81.78;100857.32;1736298;81;20932;-72
2021/08/16 03:50:12;;;;;;;18.50;10.80;;;;;;;15.79;81.79;100861.91;1736145;82;20940;-73
2021/08/16 03:52:38;;;;;;;19.30;9.93;;;;;;;15.83;81.88;100855.88;1736269;81;20878;-72
2021/08/16 03:55:06;;;;;;;25.55;11.63;;;;;;;15.87;81.85;100864.77;1736048;82;21536;-72
2021/08/16 03:57:35;;;;;;;16.95;11.43;;;;;;;15.91;81.73;100863.57;1736107;82;20865;-74
2021/08/16 04:00:07;;;;;;;14.83;12.63;;;;;;;15.97;81.89;100862.27;1736117;82;20932;-73
2021/08/16 04:02:40;;;;;;;22.42;11.08;;;;;;;16.01;82.00;100858.88;1736035;82;26407;-73
2021/08/16 04:05:06;;;;;;;14.60;10.93;;;;;;;16.07;81.94;100862.36;1735809;82;20929;-74
2021/08/16 04:07:33;;;;;;;21.57;11.08;;;;;;;16.14;81.83;100864.88;1736063;82;21122;-73
2021/08/16 04:09:59;;;;;;;21.33;12.00;;;;;;;16.20;81.67;100869.69;1735978;82;20846;-72
2021/08/16 04:12:28;;;;;;;25.00;12.28;;;;;;;16.26;81.71;100874.98;1736141;82;20885;-72
2021/08/16 04:14:57;;;;;;;22.67;13.45;;;;;;;16.34;81.68;100880.03;1736141;81;20925;-72
2021/08/16 04:17:23;;;;;;;20.30;12.23;;;;;;;16.45;81.70;100873.01;1736282;82;20991;-72
2021/08/16 04:19:50;;;;;;;25.05;14.35;;;;;;;16.55;81.82;100877.44;1736117;81;21152;-73
2021/08/16 04:22:18;;;;;;;31.80;12.47;;;;;;;16.69;81.88;100881.61;1735979;82;20838;-73
2021/08/16 04:24:45;;;;;;;20.80;11.55;;;;;;;16.84;81.73;100884.02;1736132;82;20905;-73
2021/08/16 04:27:11;;;;;;;20.82;10.08;;;;;;;16.99;81.37;100889.38;1736068;82;20897;-73
2021/08/16 04:29:39;;;;;;;24.00;10.72;;;;;;;17.15;81.18;100890.27;1736067;82;21401;-74
2021/08/16 04:32:06;;;;;;;28.47;11.75;;;;;;;17.31;80.94;100883.19;1736076;82;21193;-73
2021/08/16 04:34:33;;;;;;;38.30;12.30;;;;;;;17.49;80.32;100886.09;1735994;82;21506;-75
2021/08/16 04:37:02;;;;;;;22.20;10.80;;;;;;;17.65;79.74;100886.45;1736023;82;21415;-74
2021/08/16 04:39:29;;;;;;;23.60;11.65;;;;;;;17.87;79.13;100896.59;1735972;82;20865;-75
2021/08/16 04:41:56;;;;;;;24.75;11.40;;;;;;;18.07;78.49;100897.51;1736051;81;21457;-74
2021/08/16 04:44:23;;;;;;;26.52;13.00;;;;;;;18.26;77.46;100904.72;1736227;82;21054;-73
2021/08/16 04:46:50;;;;;;;24.15;11.53;;;;;;;18.46;76.59;100904.28;1736299;82;20901;-75
2021/08/16 04:49:17;;;;;;;15.10;10.95;;;;;;;18.64;75.88;100899.48;1736084;82;20917;-75
2021/08/16 04:51:44;;;;;;;23.27;11.70;;;;;;;18.86;75.22;100906.89;1736461;82;20941;-75
2021/08/16 04:54:11;;;;;;;18.75;11.22;;;;;;;19.13;74.73;100903.52;1736079;82;20846;-74
2021/08/16 04:56:38;;;;;;;26.93;12.58;;;;;;;19.45;74.29;100903.69;1736378;82;21105;-73
2021/08/16 04:59:05;;;;;;;30.62;12.98;;;;;;;19.71;73.55;100902.62;1735993;82;21482;-74
2021/08/16 05:01:33;;;;;;;31.23;11.97;;;;;;;20.11;72.90;100904.66;1736066;81;21024;-74
2021/08/16 05:03:59;;;;;;;18.55;11.08;;;;;;;20.71;71.69;100901.03;1736073;82;20893;-73
2021/08/16 05:06:29;;;;;;;20.32;9.73;;;;;;;21.49;69.81;100907.06;1736623;82;20885;-74
2021/08/16 05:08:57;;;;;;;26.45;9.68;;;;;;;22.33;67.09;100906.36;1736295;82;21574;-72
2021/08/16 05:11:25;;;;;;;23.05;9.35;;;;;;;23.16;64.50;100904.69;1736098;82;20982;-74
2021/08/16 05:13:53;;;;;;;20.32;9.90;;;;;;;23.92;61.82;100900.77;1736129;82;21507;-73
2021/08/16 05:16:25;;;;;;;20.85;7.35;;;;;;;24.67;59.43;100907.45;1736128;81;21019;-73
2021/08/16 05:18:53;;;;;;;15.08;7.53;;;;;;;25.38;57.17;100908.61;1736207;81;20984;-74
2021/08/16 05:21:21;;;;;;;11.65;6.35;;;;;;;26.08;54.85;100901.16;1745148;80;22156;-74
2021/08/16 05:23:49;;;;;;;8.28;5.97;;;;;;;26.74;52.75;100898.44;1750095;82;21283;-74
2021/08/16 05:26:16;;;;;;;15.13;6.60;;;;;;;27.32;51.28;100896.50;1750448;82;20889;-74
2021/08/16 05:28:44;;;;;;;10.65;6.53;;;;;;;27.83;49.89;100893.52;1750077;82;20944;-74
2021/08/16 05:31:11;;;;;;;12.73;6.70;;;;;;;28.34;48.87;100891.49;1750438;82;20834;-74
2021/08/16 05:33:41;;;;;;;13.72;6.50;;;;;;;28.79;47.65;100885.08;1750217;82;21104;-73
2021/08/16 05:36:08;;;;;;;15.43;6.12;;;;;;;29.19;46.97;100892.70;1750419;80;20877;-75
2021/08/16 05:38:35;;;;;;;13.70;6.75;;;;;;;29.49;45.94;100893.11;1749894;82;20959;-74
2021/08/16 05:41:02;;;;;;;14.83;6.20;;;;;;;29.77;44.72;100902.02;1750417;80;21027;-74
2021/08/16 05:43:30;;;;;;;12.00;6.10;;;;;;;30.06;43.81;100897.47;1750174;82;20920;-74
2021/08/16 05:45:57;;;;;;;10.48;5.60;;;;;;;30.41;43.25;100900.34;1750471;82;21497;-74
2021/08/16 05:48:24;;;;;;;6.97;5.40;;;;;;;30.70;42.20;100901.09;1750113;80;20964;-74
2021/08/16 05:50:51;;;;;;;11.97;6.53;;;;;;;31.06;40.80;100899.64;1750202;82;20853;-75
2021/08/16 05:53:18;;;;;;;8.78;6.40;;;;;;;31.43;40.05;100897.56;1750038;82;20908;-74
2021/08/16 05:55:46;;;;;;;10.75;5.80;;;;;;;31.76;39.31;100900.75;1750203;82;21499;-73
2021/08/16 05:58:12;;;;;;;14.80;5.10;;;;;;;32.12;38.25;100898.28;1750205;82;21763;-74
2021/08/16 06:00:39;;;;;;;6.42;5.17;;;;;;;32.45;37.60;100891.59;1750412;82;20924;-73
2021/08/16 06:03:06;;;;;;;13.13;5.08;;;;;;;32.70;36.64;100894.99;1750221;82;20928;-74
2021/08/16 06:05:33;;;;;;;10.78;4.28;;;;;;;32.93;35.57;100898.31;1750021;82;21469;-76
2021/08/16 06:08:00;;;;;;;12.07;5.20;;;;;;;33.23;35.06;100903.67;1750236;82;20995;-76
2021/08/16 06:10:27;;;;;;;9.85;5.25;;;;;;;33.53;34.86;100898.66;1750529;82;21738;-76
2021/08/16 06:12:54;;;;;;;15.65;5.50;;;;;;;33.78;34.01;100899.77;1750019;82;20980;-75
2021/08/16 06:15:22;;;;;;;7.87;5.40;;;;;;;33.99;33.62;100904.27;1750134;82;20964;-75
2021/08/16 06:17:50;;;;;;;7.17;4.47;;;;;;;34.19;33.74;100910.70;1750070;82;20935;-74
2021/08/16 06:20:19;;;;;;;13.95;6.30;;;;;;;34.39;33.18;100900.73;1749987;81;20874;-76
2021/08/16 06:22:48;;;;;;;14.35;5.40;;;;;;;34.59;32.89;100907.09;1750254;82;20884;-75
2021/08/16 06:25:15;;;;;;;9.43;5.55;;;;;;;34.81;33.00;100908.05;1750174;82;20968;-75
2021/08/16 06:27:44;;;;;;;10.20;4.97;;;;;;;35.00;32.63;100905.11;1749929;80;20936;-75
2021/08/16 06:30:11;;;;;;;7.62;4.22;;;;;;;35.22;32.30;100911.48;1750505;82;20904;-75
2021/08/16 06:32:39;;;;;;;8.88;5.55;;;;;;;35.38;32.13;100911.72;1750133;82;21413;-75
2021/08/16 06:35:07;;;;;;;10.90;5.10;;;;;;;35.56;31.61;100911.98;1750425;82;21104;-76
2021/08/16 06:37:34;;;;;;;6.33;4.33;;;;;;;35.73;30.91;100906.48;1749809;82;20893;-75
2021/08/16 06:40:01;;;;;;;7.65;5.40;;;;;;;35.76;30.27;100904.09;1750322;82;20892;-76
2021/08/16 06:42:29;;;;;;;11.05;5.12;;;;;;;35.68;30.66;100916.25;1750352;82;21398;-73
2021/08/16 06:44:57;;;;;;;7.03;4.72;;;;;;;35.82;31.04;100918.09;1750127;82;20932;-76
2021/08/16 06:47:24;;;;;;;12.78;4.72;;;;;;;36.01;30.55;100915.05;1750076;82;21540;-74
2021/08/16 06:49:50;;;;;;;9.05;5.45;;;;;;;36.20;30.13;100919.13;1750425;81;21419;-75
2021/08/16 06:52:17;;;;;;;10.40;5.20;;;;;;;36.38;29.85;100921.23;1750045;82;21402;-75
2021/08/16 06:54:44;;;;;;;13.20;5.35;;;;;;;36.60;29.93;100917.12;1750414;82;20932;-74
2021/08/16 06:57:11;;;;;;;7.95;5.45;;;;;;;36.78;29.77;100909.91;1749878;82;20916;-74
2021/08/16 06:59:38;;;;;;;6.90;4.62;;;;;;;36.99;29.46;100909.52;1750163;80;21118;-76
2021/08/16 07:02:05;;;;;;;5.58;4.85;;;;;;;37.24;29.35;100904.83;1750010;82;20940;-74
2021/08/16 07:04:34;;;;;;;6.72;4.75;;;;;;;37.37;28.33;100910.35;1750506;80;20924;-72
2021/08/16 07:07:02;;;;;;;8.40;5.95;;;;;;;37.45;28.42;100906.31;1723362;82;20940;-74
2021/08/16 07:09:28;;;;;;;9.43;5.37;;;;;;;37.58;28.59;100907.23;1750433;80;20912;-72
2021/08/16 07:11:56;;;;;;;17.02;6.30;;;;;;;37.80;28.73;100901.59;1749940;82;21078;-73
2021/08/16 07:14:23;;;;;;;8.55;4.90;;;;;;;38.01;28.12;100905.78;1750320;81;20960;-73
2021/08/16 07:16:50;;;;;;;8.48;4.67;;;;;;;38.18;27.79;100900.09;1750166;82;20932;-73
2021/08/16 07:19:18;;;;;;;10.65;7.05;;;;;;;38.34;27.71;100897.67;1749950;82;20900;-72
2021/08/16 07:21:46;;;;;;;9.08;4.67;;;;;;;38.52;27.78;100901.84;1742536;82;21402;-72
2021/08/16 07:24:14;;;;;;;14.98;8.40;;;;;;;38.65;27.41;100899.94;1736495;82;21117;-73
2021/08/16 07:26:43;;;;;;;5.05;4.47;;;;;;;38.76;27.07;100898.84;1735978;82;20945;-74
2021/08/16 07:29:10;;;;;;;6.95;4.55;;;;;;;38.90;26.36;100898.29;1736391;82;20945;-72
2021/08/16 07:31:37;;;;;;;9.73;5.72;;;;;;;39.03;25.99;100896.95;1736098;82;20921;-73
2021/08/16 07:34:04;;;;;;;7.58;5.62;;;;;;;39.19;25.37;100899.92;1736295;82;20905;-72
2021/08/16 07:36:31;;;;;;;8.93;6.42;;;;;;;39.27;25.43;100897.19;1736166;82;21131;-72
2021/08/16 07:38:59;;;;;;;7.42;4.25;;;;;;;39.37;25.80;100893.84;1736033;82;20917;-72
2021/08/16 07:41:26;;;;;;;10.15;5.20;;;;;;;39.51;25.38;100892.76;1736120;82;20929;-74
2021/08/16 07:43:55;;;;;;;6.22;4.97;;;;;;;39.62;24.48;100892.70;1736087;82;21339;-72
2021/08/16 07:46:21;;;;;;;11.45;5.15;;;;;;;39.56;23.91;100891.36;1736076;82;20905;-72
2021/08/16 07:48:48;;;;;;;5.42;3.75;;;;;;;39.48;23.97;100882.88;1736365;81;21506;-74
2021/08/16 07:51:16;;;;;;;6.15;4.10;;;;;;;39.54;24.21;100883.14;1736045;82;20873;-74
2021/08/16 07:53:43;;;;;;;10.32;4.78;;;;;;;39.65;24.01;100881.18;1736288;81;20972;-73
2021/08/16 07:56:11;;;;;;;8.90;4.80;;;;;;;39.82;23.97;100880.81;1715363;81;20905;-72
2021/08/16 07:58:38;;;;;;;5.40;4.30;;;;;;;39.97;24.20;100871.97;1736050;82;20940;-72
2021/08/16 08:01:05;;;;;;;4.85;4.35;;;;;;;40.14;23.94;100867.48;1736120;81;21086;-72
2021/08/16 08:03:32;;;;;;;5.95;4.03;;;;;;;40.30;22.39;100864.67;1736008;82;20920;-71
2021/08/16 08:06:00;;;;;;;12.03;4.90;;;;;;;40.38;21.23;100863.51;1736159;82;21086;-72
2021/08/16 08:08:29;;;;;;;5.97;4.25;;;;;;;40.23;22.01;100860.02;1736010;82;20901;-72
2021/08/16 08:10:56;;;;;;;8.80;4.78;;;;;;;40.27;22.13;100861.13;1736147;81;20936;-73
2021/08/16 08:13:23;;;;;;;6.65;4.00;;;;;;;40.34;21.98;100852.81;1736122;82;21129;-73
2021/08/16 08:15:51;;;;;;;6.50;4.40;;;;;;;40.44;21.19;100853.27;1736002;82;20920;-72
2021/08/16 08:18:18;;;;;;;5.37;3.40;;;;;;;40.35;21.00;100852.25;1736336;81;20853;-74
2021/08/16 08:20:45;;;;;;;5.72;3.98;;;;;;;40.44;20.26;100851.09;1736149;81;21086;-78
2021/08/16 08:23:11;;;;;;;6.12;3.85;;;;;;;40.51;20.23;100847.45;1736251;82;20916;-74
2021/08/16 08:25:39;;;;;;;7.10;4.20;;;;;;;40.53;20.67;100843.86;1736132;82;21092;-74
2021/08/16 08:28:15;;;;;;;8.58;4.10;;;;;;;40.51;19.60;100834.55;1735982;82;20913;-77
2021/08/16 08:30:44;;;;;;;10.45;3.80;;;;;;;40.30;20.18;100838.55;1736029;82;20971;-74
2021/08/16 08:33:15;;;;;;;8.40;3.22;;;;;;;40.10;20.35;100842.23;1736014;81;20936;-75
2021/08/16 08:35:46;;;;;;;8.20;3.58;;;;;;;39.90;20.85;100837.69;1736362;82;20912;-72
2021/08/16 08:38:14;;;;;;;7.42;3.20;;;;;;;39.97;20.47;100840.37;1736031;82;21974;-73
2021/08/16 08:40:41;;;;;;;5.62;3.47;;;;;;;40.01;19.62;100838.45;1735979;82;20867;-76
2021/08/16 08:43:11;;;;;;;6.42;2.52;;;;;;;40.02;19.71;100838.70;1736318;81;20916;-72
2021/08/16 08:45:39;;;;;;;3.17;2.60;;;;;;;40.21;19.60;100838.31;1736184;81;20901;-73
2021/08/16 08:48:06;;;;;;;7.28;3.25;;;;;;;40.43;19.77;100840.66;1736341;82;21462;-72
2021/08/16 08:50:32;;;;;;;5.58;3.50;;;;;;;40.67;18.36;100838.54;1736170;82;21133;-73
2021/08/16 08:53:01;;;;;;;8.10;3.20;;;;;;;40.79;18.16;100838.42;1736104;82;20945;-73
2021/08/16 08:55:28;;;;;;;5.67;3.22;;;;;;;40.86;18.14;100825.71;1736304;82;20952;-72
2021/08/16 08:57:57;;;;;;;7.10;3.27;;;;;;;40.99;18.62;100825.59;1736179;82;21506;-71
2021/08/16 09:00:24;;;;;;;5.12;2.70;;;;;;;41.13;19.12;100824.33;1736319;82;21023;-72
2021/08/16 09:02:59;;;;;;;3.77;3.10;;;;;;;41.08;18.46;100823.83;1736557;82;21058;-72
2021/08/16 09:05:27;;;;;;;5.33;3.00;;;;;;;40.88;18.20;100821.30;1736310;82;20889;-71
2021/08/16 09:08:00;;;;;;;6.15;3.35;;;;;;;40.77;19.43;100822.77;1736627;82;20980;-70
2021/08/16 09:10:28;;;;;;;10.65;3.37;;;;;;;40.86;18.37;100822.95;1736203;82;20901;-70
2021/08/16 09:13:00;;;;;;;3.00;2.47;;;;;;;40.98;18.32;100821.20;1736321;82;20925;-71
2021/08/16 09:15:31;;;;;;;3.47;3.08;;;;;;;41.11;18.83;100823.27;1736197;82;21186;-72
2021/08/16 09:18:03;;;;;;;4.50;3.00;;;;;;;41.25;17.55;100815.71;1736643;82;20858;-70
2021/08/16 09:20:34;;;;;;;8.80;3.65;;;;;;;41.22;16.88;100822.59;1736279;82;28532;-71
2021/08/16 09:23:13;;;;;;;4.72;2.42;;;;;;;41.01;17.25;100813.17;1736091;81;20877;-71
2021/08/16 09:25:39;;;;;;;5.72;2.98;;;;;;;40.99;18.40;100813.20;1736232;82;20893;-70
2021/08/16 09:28:07;;;;;;;5.33;3.17;;;;;;;40.99;18.48;100814.02;1736602;82;21087;-71
2021/08/16 09:30:37;;;;;;;8.58;3.35;;;;;;;40.84;18.41;100814.17;1736152;82;20920;-70
2021/08/16 09:33:16;;;;;;;5.53;3.00;;;;;;;40.66;18.42;100815.70;1736521;82;20987;-69
2021/08/16 09:35:55;;;;;;;6.87;3.20;;;;;;;40.60;19.14;100817.69;1736168;81;21000;-69
2021/08/16 09:38:42;;;;;;;5.90;3.27;;;;;;;40.48;18.93;100803.48;1736393;81;20928;-71
2021/08/16 09:41:22;;;;;;;5.22;2.90;;;;;;;40.55;18.97;100814.16;1736242;82;21545;-70
2021/08/16 09:43:53;;;;;;;2.45;1.87;;;;;;;40.70;17.99;100809.92;1736311;82;20932;-70
2021/08/16 09:46:21;;;;;;;3.12;2.87;;;;;;;40.79;16.54;100808.73;1736218;82;21315;-71
2021/08/16 09:48:59;;;;;;;4.15;3.08;;;;;;;40.71;17.74;100803.86;1736182;81;20916;-71
2021/08/16 09:51:27;;;;;;;3.22;2.47;;;;;;;40.63;17.34;100802.54;1736328;82;20920;-71
2021/08/16 09:53:54;;;;;;;5.75;2.70;;;;;;;40.48;18.07;100801.30;1736388;82;21494;-71
2021/08/16 09:56:21;;;;;;;6.37;3.70;;;;;;;40.55;18.28;100808.66;1736130;81;20921;-71
2021/08/16 09:58:49;;;;;;;4.72;2.70;;;;;;;40.50;17.63;100804.02;1736090;81;20889;-71
2021/08/16 10:01:16;;;;;;;5.45;2.95;;;;;;;40.32;17.31;100794.55;1736090;82;20901;-72
2021/08/16 10:03:43;;;;;;;4.95;2.98;;;;;;;40.06;17.92;100807.63;1736213;82;21517;-70
2021/08/16 10:06:14;;;;;;;6.87;2.98;;;;;;;40.02;17.79;100812.05;1736117;82;21024;-71
2021/08/16 10:08:53;;;;;;;5.83;2.40;;;;;;;40.14;18.02;100799.34;1736580;82;20886;-72
2021/08/16 10:11:22;;;;;;;2.83;2.60;;;;;;;40.03;17.94;100797.78;1736137;82;21323;-72
2021/08/16 10:13:52;;;;;;;2.92;2.50;;;;;;;39.92;17.95;100801.15;1736474;82;20921;-73
2021/08/16 10:16:31;;;;;;;2.65;2.45;;;;;;;39.97;18.21;100804.66;1736350;81;20889;-72
2021/08/16 10:19:17;;;;;;;5.28;2.50;;;;;;;40.08;17.72;100805.42;1736126;81;20881;-72
2021/08/16 10:21:44;;;;;;;5.62;2.52;;;;;;;40.25;17.94;100795.97;1665280;84;21153;-71
2021/08/16 10:24:25;;;;;;;2.92;2.62;;;;;;;40.42;16.86;100794.20;1666248;84;20928;-73
2021/08/16 10:27:11;;;;;;;3.98;2.55;;;;;;;40.49;16.87;100795.52;1663956;85;20967;-73
2021/08/16 10:29:40;;;;;;;5.17;2.65;;;;;;;40.55;16.80;100793.53;1665830;84;20924;-76
2021/08/16 10:32:17;;;;;;;4.12;2.30;;;;;;;40.50;17.29;100790.84;1660895;85;21307;-73
2021/08/16 10:34:44;;;;;;;4.10;3.10;;;;;;;40.49;17.76;100794.15;1660658;85;21007;-72
2021/08/16 10:37:15;;;;;;;5.28;2.27;;;;;;;40.47;17.71;100789.48;1660357;85;21017;-72
2021/08/16 10:39:45;;;;;;;8.43;2.65;;;;;;;40.51;17.51;100795.21;1660902;86;20967;-72
2021/08/16 10:42:17;;;;;;;3.60;2.70;;;;;;;40.59;17.70;100787.16;1660807;85;20860;-72
2021/08/16 10:44:49;;;;;;;3.60;2.50;;;;;;;40.69;17.27;100786.79;1660958;85;21121;-72
2021/08/16 10:47:29;;;;;;;4.90;2.10;;;;;;;40.84;17.24;100787.23;1660746;85;20891;-74
2021/08/16 10:50:12;;;;;;;2.80;2.58;;;;;;;40.94;17.58;100785.20;1661042;85;21063;-73
2021/08/16 10:52:41;;;;;;;6.70;2.37;;;;;;;41.03;16.90;100777.12;1659320;86;20963;-73
2021/08/16 10:55:15;;;;;;;3.15;2.20;;;;;;;41.09;17.01;100781.98;1660645;85;20960;-72
2021/08/16 10:57:43;;;;;;;3.12;2.55;;;;;;;41.03;16.28;100775.74;1661639;85;21525;-73
2021/08/16 11:00:13;;;;;;;2.40;2.20;;;;;;;40.98;16.63;100774.44;1700852;83;20924;-72
2021/08/16 11:02:41;;;;;;;2.45;2.02;;;;;;;40.95;17.12;100776.37;1701063;83;20908;-72
2021/08/16 11:05:12;;;;;;;5.90;2.70;;;;;;;40.98;17.23;100766.99;1696015;84;20897;-73
2021/08/16 11:07:41;;;;;;;6.58;2.85;;;;;;;40.96;17.05;100760.96;1696073;84;20949;-72
2021/08/16 11:10:09;;;;;;;8.25;3.00;;;;;;;40.87;16.67;100756.38;1695890;84;21146;-72
2021/08/16 11:12:43;;;;;;;7.67;2.72;;;;;;;40.60;17.31;100761.88;1696023;84;20924;-72
2021/08/16 11:15:13;;;;;;;3.45;2.27;;;;;;;40.46;16.64;100761.72;1696089;84;20912;-73
2021/08/16 11:17:40;;;;;;;3.47;3.17;;;;;;;40.36;16.85;100758.52;1696171;84;20928;-72
2021/08/16 11:20:15;;;;;;;7.85;2.90;;;;;;;40.25;17.96;100747.32;1696096;84;20916;-72
2021/08/16 11:22:53;;;;;;;4.50;2.47;;;;;;;40.20;18.25;100752.31;1695978;83;21232;-72
2021/08/16 11:25:20;;;;;;;4.10;2.55;;;;;;;40.13;17.95;100746.86;1668989;84;20957;-73